sensor_id;sensor_type;location;lat;lon;timestamp;pressure;altitude;pressure_sealevel;temperature;humidity
11212;BME280;5663;50.864;12.096;2023-04-23T00:00:06;98566.38;;;15.67;66.45
11212;BME280;5663;50.864;12.096;2023-04-23T00:02:38;98596.66;;;15.81;66.77
11212;BME280;5663;50.864;12.096;2023-04-23T00:05:10;98596.66;;;15.81;66.72
11212;BME280;5663;50.864;12.096;2023-04-23T00:07:41;98591.69;;;15.78;66.57
11212;BME280;5663;50.864;12.096;2023-04-23T00:10:10;98589.59;;;15.72;66.62
11212;BME280;5663;50.864;12.096;2023-04-23T00:12:39;98581.41;;;15.65;66.93
11212;BME280;5663;50.864;12.096;2023-04-23T00:15:08;98584.72;;;15.67;66.78
11212;BME280;5663;50.864;12.096;2023-04-23T00:17:37;98572.78;;;15.63;66.89
11212;BME280;5663;50.864;12.096;2023-04-23T00:20:11;98569.00;;;15.67;67.08
11212;BME280;5663;50.864;12.096;2023-04-23T00:22:39;98572.31;;;15.69;67.11
11212;BME280;5663;50.864;12.096;2023-04-23T00:25:08;98579.22;;;15.70;66.86
11212;BME280;5663;50.864;12.096;2023-04-23T00:27:39;98575.63;;;15.71;66.71
11212;BME280;5663;50.864;12.096;2023-04-23T00:30:08;98575.38;;;15.74;66.55
11212;BME280;5663;50.864;12.096;2023-04-23T00:32:37;98577.03;;;15.75;66.63
11212;BME280;5663;50.864;12.096;2023-04-23T00:35:06;98569.06;;;15.77;66.72
11212;BME280;5663;50.864;12.096;2023-04-23T00:37:36;98566.28;;;15.79;66.76
11212;BME280;5663;50.864;12.096;2023-04-23T00:40:04;98568.47;;;15.73;66.66
11212;BME280;5663;50.864;12.096;2023-04-23T00:42:33;98563.91;;;15.75;66.68
11212;BME280;5663;50.864;12.096;2023-04-23T00:45:02;98547.75;;;15.70;66.99
11212;BME280;5663;50.864;12.096;2023-04-23T00:47:30;98566.28;;;15.79;66.80
11212;BME280;5663;50.864;12.096;2023-04-23T00:49:59;98487.72;;;15.37;66.84
11212;BME280;5663;50.864;12.096;2023-04-23T00:52:28;98551.09;;;15.72;66.81
11212;BME280;5663;50.864;12.096;2023-04-23T00:54:58;98551.66;;;15.76;66.53
11212;BME280;5663;50.864;12.096;2023-04-23T00:57:27;98528.25;;;15.63;66.85
11212;BME280;5663;50.864;12.096;2023-04-23T00:59:55;98545.56;;;15.75;66.37
11212;BME280;5663;50.864;12.096;2023-04-23T01:02:24;98548.66;;;15.81;66.21
11212;BME280;5663;50.864;12.096;2023-04-23T01:04:53;98546.72;;;15.83;66.46
11212;BME280;5663;50.864;12.096;2023-04-23T01:07:22;98548.66;;;15.81;66.77
11212;BME280;5663;50.864;12.096;2023-04-23T01:09:53;98546.72;;;15.83;66.60
11212;BME280;5663;50.864;12.096;2023-04-23T01:12:22;98543.41;;;15.81;66.59
11212;BME280;5663;50.864;12.096;2023-04-23T01:14:51;98539.81;;;15.82;66.78
11212;BME280;5663;50.864;12.096;2023-04-23T01:17:19;98541.03;;;15.77;67.20
11212;BME280;5663;50.864;12.096;2023-04-23T01:19:47;98537.28;;;15.70;67.36
11212;BME280;5663;50.864;12.096;2023-04-23T01:22:17;98540.63;;;15.72;67.36
11212;BME280;5663;50.864;12.096;2023-04-23T01:24:46;98539.78;;;15.72;67.22
11212;BME280;5663;50.864;12.096;2023-04-23T01:27:14;98540.63;;;15.72;67.18
11212;BME280;5663;50.864;12.096;2023-04-23T01:29:46;98537.16;;;15.72;67.10
11212;BME280;5663;50.864;12.096;2023-04-23T01:32:14;98541.56;;;15.71;67.49
11212;BME280;5663;50.864;12.096;2023-04-23T01:34:43;98516.81;;;15.64;67.47
11212;BME280;5663;50.864;12.096;2023-04-23T01:37:13;98521.19;;;15.64;67.58
11212;BME280;5663;50.864;12.096;2023-04-23T01:39:43;98527.03;;;15.67;67.46
11212;BME280;5663;50.864;12.096;2023-04-23T01:42:11;98534.22;;;15.65;67.93
11212;BME280;5663;50.864;12.096;2023-04-23T01:44:39;98530.88;;;15.63;68.05
11212;BME280;5663;50.864;12.096;2023-04-23T01:47:07;98519.69;;;15.61;67.95
11212;BME280;5663;50.864;12.096;2023-04-23T01:49:36;98523.28;;;15.60;68.03
11212;BME280;5663;50.864;12.096;2023-04-23T01:52:05;98522.31;;;15.61;68.37
11212;BME280;5663;50.864;12.096;2023-04-23T01:54:34;98520.66;;;15.60;68.13
11212;BME280;5663;50.864;12.096;2023-04-23T01:57:04;98518.97;;;15.59;68.21
11212;BME280;5663;50.864;12.096;2023-04-23T01:59:36;98522.81;;;15.55;68.39
11212;BME280;5663;50.864;12.096;2023-04-23T02:02:11;98504.00;;;15.40;68.30
11212;BME280;5663;50.864;12.096;2023-04-23T02:04:39;98517.88;;;15.52;68.54
11212;BME280;5663;50.864;12.096;2023-04-23T02:07:22;98520.59;;;15.50;68.58
11212;BME280;5663;50.864;12.096;2023-04-23T02:09:57;98522.38;;;15.50;68.68
11212;BME280;5663;50.864;12.096;2023-04-23T02:12:26;98526.09;;;15.47;68.76
11212;BME280;5663;50.864;12.096;2023-04-23T02:14:54;98523.63;;;15.46;68.88
11212;BME280;5663;50.864;12.096;2023-04-23T02:17:22;98526.22;;;15.46;68.68
11212;BME280;5663;50.864;12.096;2023-04-23T02:19:50;98516.81;;;15.43;68.81
11212;BME280;5663;50.864;12.096;2023-04-23T02:22:24;98491.81;;;15.30;69.20
11212;BME280;5663;50.864;12.096;2023-04-23T02:24:51;98503.44;;;15.37;69.12
11212;BME280;5663;50.864;12.096;2023-04-23T02:27:20;98500.81;;;15.37;68.91
11212;BME280;5663;50.864;12.096;2023-04-23T02:29:49;98511.47;;;15.45;69.00
11212;BME280;5663;50.864;12.096;2023-04-23T02:32:17;98513.97;;;15.46;68.59
11212;BME280;5663;50.864;12.096;2023-04-23T02:34:45;98501.91;;;15.34;68.46
11212;BME280;5663;50.864;12.096;2023-04-23T02:37:13;98524.44;;;15.46;68.59
11212;BME280;5663;50.864;12.096;2023-04-23T02:39:41;98501.50;;;15.39;68.99
11212;BME280;5663;50.864;12.096;2023-04-23T02:42:09;98512.31;;;15.45;69.29
11212;BME280;5663;50.864;12.096;2023-04-23T02:44:37;98511.59;;;15.43;69.11
11212;BME280;5663;50.864;12.096;2023-04-23T02:47:11;98487.06;;;15.23;69.24
11212;BME280;5663;50.864;12.096;2023-04-23T02:49:38;98504.84;;;15.41;69.32
11212;BME280;5663;50.864;12.096;2023-04-23T02:52:06;98503.44;;;15.37;69.67
11212;BME280;5663;50.864;12.096;2023-04-23T02:54:39;98502.72;;;15.35;69.81
11212;BME280;5663;50.864;12.096;2023-04-23T02:57:11;98480.44;;;15.19;69.79
11212;BME280;5663;50.864;12.096;2023-04-23T02:59:42;98492.31;;;15.23;69.82
11212;BME280;5663;50.864;12.096;2023-04-23T03:02:11;98507.97;;;15.35;70.00
11212;BME280;5663;50.864;12.096;2023-04-23T03:04:39;98513.44;;;15.32;70.12
11212;BME280;5663;50.864;12.096;2023-04-23T03:07:07;98513.72;;;15.28;70.14
11212;BME280;5663;50.864;12.096;2023-04-23T03:09:34;98510.41;;;15.26;70.34
11212;BME280;5663;50.864;12.096;2023-04-23T03:12:03;98516.59;;;15.25;70.37
11212;BME280;5663;50.864;12.096;2023-04-23T03:14:31;98511.47;;;15.24;70.38
11212;BME280;5663;50.864;12.096;2023-04-23T03:16:59;98511.38;;;15.25;70.44
11212;BME280;5663;50.864;12.096;2023-04-23T03:19:28;98513.84;;;15.27;70.10
11212;BME280;5663;50.864;12.096;2023-04-23T03:21:56;98511.13;;;15.28;70.05
11212;BME280;5663;50.864;12.096;2023-04-23T03:24:24;98507.53;;;15.30;70.05
11212;BME280;5663;50.864;12.096;2023-04-23T03:26:52;98509.19;;;15.31;70.02
11212;BME280;5663;50.864;12.096;2023-04-23T03:29:20;98506.31;;;15.34;69.99
11212;BME280;5663;50.864;12.096;2023-04-23T03:31:48;98512.22;;;15.36;69.84
11212;BME280;5663;50.864;12.096;2023-04-23T03:34:16;98505.34;;;15.35;69.69
11212;BME280;5663;50.864;12.096;2023-04-23T03:36:45;98513.91;;;15.37;69.77
11212;BME280;5663;50.864;12.096;2023-04-23T03:39:15;98511.97;;;15.39;69.78
11212;BME280;5663;50.864;12.096;2023-04-23T03:41:43;98513.63;;;15.40;69.56
11212;BME280;5663;50.864;12.096;2023-04-23T03:44:11;98512.56;;;15.42;69.58
11212;BME280;5663;50.864;12.096;2023-04-23T03:46:49;98519.34;;;15.45;69.14
11212;BME280;5663;50.864;12.096;2023-04-23T03:49:17;98518.38;;;15.46;68.80
11212;BME280;5663;50.864;12.096;2023-04-23T03:51:46;98517.16;;;15.50;68.76
11212;BME280;5663;50.864;12.096;2023-04-23T03:54:25;98513.69;;;15.49;69.08
11212;BME280;5663;50.864;12.096;2023-04-23T03:56:54;98516.19;;;15.51;69.02
11212;BME280;5663;50.864;12.096;2023-04-23T03:59:23;98517.88;;;15.52;69.02
11212;BME280;5663;50.864;12.096;2023-04-23T04:01:50;98514.38;;;15.51;69.05
11212;BME280;5663;50.864;12.096;2023-04-23T04:04:18;98520.47;;;15.52;69.04
11212;BME280;5663;50.864;12.096;2023-04-23T04:06:47;98516.72;;;15.45;69.16
11212;BME280;5663;50.864;12.096;2023-04-23T04:09:15;98523.34;;;15.49;69.08
11212;BME280;5663;50.864;12.096;2023-04-23T04:11:45;98524.03;;;15.51;69.19
11212;BME280;5663;50.864;12.096;2023-04-23T04:14:13;98525.00;;;15.50;69.17
11212;BME280;5663;50.864;12.096;2023-04-23T04:16:41;98529.44;;;15.49;69.15
11212;BME280;5663;50.864;12.096;2023-04-23T04:19:09;98517.22;;;15.39;69.03
11212;BME280;5663;50.864;12.096;2023-04-23T04:21:37;98534.66;;;15.49;68.92
11212;BME280;5663;50.864;12.096;2023-04-23T04:24:07;98536.31;;;15.50;68.93
11212;BME280;5663;50.864;12.096;2023-04-23T04:26:40;98537.03;;;15.52;68.93
11212;BME280;5663;50.864;12.096;2023-04-23T04:29:08;98533.59;;;15.52;69.17
11212;BME280;5663;50.864;12.096;2023-04-23T04:31:36;98538.81;;;15.52;69.15
11212;BME280;5663;50.864;12.096;2023-04-23T04:34:06;98535.50;;;15.50;69.36
11212;BME280;5663;50.864;12.096;2023-04-23T04:36:36;98517.47;;;15.36;69.46
11212;BME280;5663;50.864;12.096;2023-04-23T04:39:04;98544.31;;;15.49;69.98
11212;BME280;5663;50.864;12.096;2023-04-23T04:41:35;98539.09;;;15.49;70.17
11212;BME280;5663;50.864;12.096;2023-04-23T04:44:04;98539.09;;;15.49;70.50
11212;BME280;5663;50.864;12.096;2023-04-23T04:46:32;98549.56;;;15.49;70.70
11212;BME280;5663;50.864;12.096;2023-04-23T04:49:00;98547.91;;;15.48;70.77
11212;BME280;5663;50.864;12.096;2023-04-23T04:51:29;98548.16;;;15.45;71.07
11212;BME280;5663;50.864;12.096;2023-04-23T04:53:57;98548.41;;;15.42;71.47
11212;BME280;5663;50.864;12.096;2023-04-23T04:56:25;98553.06;;;15.38;71.70
11212;BME280;5663;50.864;12.096;2023-04-23T04:58:54;98543.44;;;15.39;71.87
11212;BME280;5663;50.864;12.096;2023-04-23T05:01:23;98551.16;;;15.40;72.03
11212;BME280;5663;50.864;12.096;2023-04-23T05:03:52;98538.19;;;15.39;72.08
11212;BME280;5663;50.864;12.096;2023-04-23T05:06:20;98542.75;;;15.37;72.24
11212;BME280;5663;50.864;12.096;2023-04-23T05:08:48;98557.94;;;15.43;72.38
11212;BME280;5663;50.864;12.096;2023-04-23T05:11:16;98512.66;;;15.10;72.09
11212;BME280;5663;50.864;12.096;2023-04-23T05:13:45;98516.41;;;15.17;72.06
11212;BME280;5663;50.864;12.096;2023-04-23T05:16:15;98563.63;;;15.48;72.00
11212;BME280;5663;50.864;12.096;2023-04-23T05:18:44;98546.03;;;15.39;72.21
11212;BME280;5663;50.864;12.096;2023-04-23T05:21:11;98545.94;;;15.40;72.17
11212;BME280;5663;50.864;12.096;2023-04-23T05:23:39;98575.25;;;15.55;72.46
11212;BME280;5663;50.864;12.096;2023-04-23T05:26:08;98568.91;;;15.58;72.82
11212;BME280;5663;50.864;12.096;2023-04-23T05:28:36;98573.06;;;15.60;72.60
11212;BME280;5663;50.864;12.096;2023-04-23T05:31:04;98561.19;;;15.56;72.69
11212;BME280;5663;50.864;12.096;2023-04-23T05:33:33;98575.19;;;15.66;72.77
11212;BME280;5663;50.864;12.096;2023-04-23T05:36:01;98569.56;;;15.71;72.59
11212;BME280;5663;50.864;12.096;2023-04-23T05:38:29;98574.41;;;15.75;72.49
11212;BME280;5663;50.864;12.096;2023-04-23T05:40:58;98562.97;;;15.76;72.34
11212;BME280;5663;50.864;12.096;2023-04-23T05:43:26;98551.59;;;15.66;72.36
11212;BME280;5663;50.864;12.096;2023-04-23T05:45:54;98577.91;;;15.86;71.69
11212;BME280;5663;50.864;12.096;2023-04-23T05:48:22;98590.63;;;15.90;71.65
11212;BME280;5663;50.864;12.096;2023-04-23T05:50:53;98590.94;;;15.97;72.09
11212;BME280;5663;50.864;12.096;2023-04-23T05:53:21;98589.28;;;15.96;72.25
11212;BME280;5663;50.864;12.096;2023-04-23T05:55:49;98597.34;;;16.04;72.63
11212;BME280;5663;50.864;12.096;2023-04-23T05:58:17;98584.91;;;16.06;72.82
11212;BME280;5663;50.864;12.096;2023-04-23T06:00:48;98593.09;;;16.13;72.11
11212;BME280;5663;50.864;12.096;2023-04-23T06:03:18;98598.06;;;16.16;71.84
11212;BME280;5663;50.864;12.096;2023-04-23T06:05:46;98600.97;;;16.22;70.92
11212;BME280;5663;50.864;12.096;2023-04-23T06:08:16;98604.88;;;16.28;70.94
11212;BME280;5663;50.864;12.096;2023-04-23T06:10:45;98591.34;;;16.33;70.40
11212;BME280;5663;50.864;12.096;2023-04-23T06:13:14;98566.19;;;16.20;70.28
11212;BME280;5663;50.864;12.096;2023-04-23T06:15:43;98595.28;;;16.48;70.40
11212;BME280;5663;50.864;12.096;2023-04-23T06:18:15;98596.38;;;16.55;69.88
11212;BME280;5663;50.864;12.096;2023-04-23T06:20:43;98578.66;;;16.47;69.12
11212;BME280;5663;50.864;12.096;2023-04-23T06:23:13;98598.63;;;16.69;68.83
11212;BME280;5663;50.864;12.096;2023-04-23T06:25:48;98593.41;;;16.79;68.75
11212;BME280;5663;50.864;12.096;2023-04-23T06:28:16;98593.69;;;16.86;68.54
11212;BME280;5663;50.864;12.096;2023-04-23T06:30:44;98595.06;;;16.90;67.84
11212;BME280;5663;50.864;12.096;2023-04-23T06:33:12;98607.78;;;16.94;67.58
11212;BME280;5663;50.864;12.096;2023-04-23T06:35:41;98603.09;;;16.98;67.25
11212;BME280;5663;50.864;12.096;2023-04-23T06:38:09;98596.75;;;17.01;67.08
11212;BME280;5663;50.864;12.096;2023-04-23T06:40:37;98611.13;;;17.06;66.57
11212;BME280;5663;50.864;12.096;2023-04-23T06:43:06;98602.25;;;17.07;66.39
11212;BME280;5663;50.864;12.096;2023-04-23T06:45:36;98605.88;;;17.16;66.56
11212;BME280;5663;50.864;12.096;2023-04-23T06:48:07;98600.34;;;17.29;66.18
11212;BME280;5663;50.864;12.096;2023-04-23T06:50:36;98602.94;;;17.38;66.28
11212;BME280;5663;50.864;12.096;2023-04-23T06:53:05;98600.31;;;17.48;66.12
11212;BME280;5663;50.864;12.096;2023-04-23T06:55:33;98602.75;;;17.59;66.04
11212;BME280;5663;50.864;12.096;2023-04-23T06:58:01;98590.28;;;17.71;65.74
11212;BME280;5663;50.864;12.096;2023-04-23T07:00:30;98594.88;;;17.79;65.24
11212;BME280;5663;50.864;12.096;2023-04-23T07:02:58;98562.63;;;17.67;64.98
11212;BME280;5663;50.864;12.096;2023-04-23T07:05:27;98588.88;;;17.96;64.32
11212;BME280;5663;50.864;12.096;2023-04-23T07:07:55;98594.91;;;18.06;63.71
11212;BME280;5663;50.864;12.096;2023-04-23T07:10:23;98595.72;;;18.16;63.74
11212;BME280;5663;50.864;12.096;2023-04-23T07:12:52;98600.09;;;18.26;64.00
11212;BME280;5663;50.864;12.096;2023-04-23T07:15:21;98587.03;;;18.34;63.49
11212;BME280;5663;50.864;12.096;2023-04-23T07:17:53;98596.66;;;18.43;63.86
11212;BME280;5663;50.864;12.096;2023-04-23T07:20:21;98599.44;;;18.51;63.15
11212;BME280;5663;50.864;12.096;2023-04-23T07:22:49;98596.34;;;18.56;62.91
11212;BME280;5663;50.864;12.096;2023-04-23T07:25:19;98591.06;;;18.56;62.60
11212;BME280;5663;50.864;12.096;2023-04-23T07:27:48;98597.16;;;18.56;62.38
11212;BME280;5663;50.864;12.096;2023-04-23T07:30:15;98598.97;;;18.56;61.87
11212;BME280;5663;50.864;12.096;2023-04-23T07:32:45;98596.19;;;18.57;61.71
11212;BME280;5663;50.864;12.096;2023-04-23T07:35:16;98588.56;;;18.54;61.71
11212;BME280;5663;50.864;12.096;2023-04-23T07:37:44;98585.28;;;18.52;62.00
11212;BME280;5663;50.864;12.096;2023-04-23T07:40:13;98598.00;;;18.57;61.14
11212;BME280;5663;50.864;12.096;2023-04-23T07:42:42;98603.00;;;18.50;61.22
11212;BME280;5663;50.864;12.096;2023-04-23T07:45:12;98610.53;;;18.45;60.91
11212;BME280;5663;50.864;12.096;2023-04-23T07:47:40;98621.13;;;18.35;60.83
11212;BME280;5663;50.864;12.096;2023-04-23T07:50:08;98625.88;;;18.22;60.70
11212;BME280;5663;50.864;12.096;2023-04-23T07:52:38;98632.56;;;18.07;61.30
11212;BME280;5663;50.864;12.096;2023-04-23T07:55:08;98639.81;;;17.95;61.69
11212;BME280;5663;50.864;12.096;2023-04-23T07:57:36;98615.50;;;17.54;61.06
11212;BME280;5663;50.864;12.096;2023-04-23T08:00:11;98676.38;;;17.59;61.36
11212;BME280;5663;50.864;12.096;2023-04-23T08:02:57;98674.34;;;17.34;61.90
11212;BME280;5663;50.864;12.096;2023-04-23T08:05:26;98679.56;;;17.14;62.43
11212;BME280;5663;50.864;12.096;2023-04-23T08:08:09;98645.09;;;16.79;62.78
11212;BME280;5663;50.864;12.096;2023-04-23T08:10:39;98680.63;;;16.83;62.98
11212;BME280;5663;50.864;12.096;2023-04-23T08:13:09;98685.94;;;16.71;62.48
11212;BME280;5663;50.864;12.096;2023-04-23T08:15:41;98693.38;;;16.57;62.46
11212;BME280;5663;50.864;12.096;2023-04-23T08:18:19;98692.50;;;16.46;62.73
11212;BME280;5663;50.864;12.096;2023-04-23T08:20:49;98697.97;;;16.34;62.89
11212;BME280;5663;50.864;12.096;2023-04-23T08:23:23;98705.09;;;16.22;62.93
11212;BME280;5663;50.864;12.096;2023-04-23T08:25:53;98714.16;;;16.08;63.23
11212;BME280;5663;50.864;12.096;2023-04-23T08:28:22;98711.34;;;16.00;63.59
11212;BME280;5663;50.864;12.096;2023-04-23T08:30:52;98708.38;;;15.93;63.91
11212;BME280;5663;50.864;12.096;2023-04-23T08:33:28;98711.66;;;15.86;64.11
11212;BME280;5663;50.864;12.096;2023-04-23T08:36:00;98693.72;;;15.70;64.46
11212;BME280;5663;50.864;12.096;2023-04-23T08:38:36;98724.56;;;15.77;65.17
11212;BME280;5663;50.864;12.096;2023-04-23T08:41:10;98717.78;;;15.75;65.34
11212;BME280;5663;50.864;12.096;2023-04-23T08:44:00;98729.38;;;15.72;65.45
11212;BME280;5663;50.864;12.096;2023-04-23T08:46:55;98724.38;;;15.69;65.39
11212;BME280;5663;50.864;12.096;2023-04-23T08:49:36;98717.47;;;15.68;65.48
11212;BME280;5663;50.864;12.096;2023-04-23T08:52:15;98719.25;;;15.68;65.67
11212;BME280;5663;50.864;12.096;2023-04-23T08:55:03;98722.31;;;15.73;66.12
11212;BME280;5663;50.864;12.096;2023-04-23T08:57:38;98721.13;;;15.77;65.61
11212;BME280;5663;50.864;12.096;2023-04-23T09:00:17;98726.94;;;15.81;65.78
11212;BME280;5663;50.864;12.096;2023-04-23T09:02:49;98717.03;;;15.84;65.43
11212;BME280;5663;50.864;12.096;2023-04-23T09:05:19;98709.03;;;15.86;65.55
11212;BME280;5663;50.864;12.096;2023-04-23T09:07:48;98722.13;;;16.07;65.70
11212;BME280;5663;50.864;12.096;2023-04-23T09:10:19;98721.41;;;16.25;66.29
11212;BME280;5663;50.864;12.096;2023-04-23T09:12:52;98728.97;;;16.40;66.28
11212;BME280;5663;50.864;12.096;2023-04-23T09:15:20;98715.22;;;16.57;66.26
11212;BME280;5663;50.864;12.096;2023-04-23T09:17:49;98703.66;;;16.69;64.82
11212;BME280;5663;50.864;12.096;2023-04-23T09:20:18;98706.38;;;16.89;65.54
11212;BME280;5663;50.864;12.096;2023-04-23T09:22:49;98694.78;;;17.01;65.35
11212;BME280;5663;50.864;12.096;2023-04-23T09:25:21;98706.00;;;17.22;65.25
11212;BME280;5663;50.864;12.096;2023-04-23T09:27:54;98702.41;;;17.43;65.15
11212;BME280;5663;50.864;12.096;2023-04-23T09:30:26;98701.88;;;17.68;63.94
11212;BME280;5663;50.864;12.096;2023-04-23T09:32:55;98686.09;;;17.88;64.04
11212;BME280;5663;50.864;12.096;2023-04-23T09:35:26;98691.56;;;18.24;63.09
11212;BME280;5663;50.864;12.096;2023-04-23T09:37:55;98688.41;;;18.48;63.29
11212;BME280;5663;50.864;12.096;2023-04-23T09:40:26;98692.75;;;18.66;62.70
11212;BME280;5663;50.864;12.096;2023-04-23T09:42:55;98686.56;;;18.85;61.68
11212;BME280;5663;50.864;12.096;2023-04-23T09:45:28;98674.47;;;19.10;61.84
11212;BME280;5663;50.864;12.096;2023-04-23T09:47:59;98683.47;;;19.35;60.60
11212;BME280;5663;50.864;12.096;2023-04-23T09:50:34;98682.47;;;19.54;58.37
11212;BME280;5663;50.864;12.096;2023-04-23T09:53:03;98689.59;;;19.72;57.77
11212;BME280;5663;50.864;12.096;2023-04-23T09:55:36;98677.22;;;19.98;58.90
11212;BME280;5663;50.864;12.096;2023-04-23T09:58:06;98666.31;;;20.19;56.51
11212;BME280;5663;50.864;12.096;2023-04-23T10:00:36;98676.84;;;20.45;57.05
11212;BME280;5663;50.864;12.096;2023-04-23T10:03:07;98670.03;;;20.69;56.57
11212;BME280;5663;50.864;12.096;2023-04-23T10:05:37;98614.13;;;20.47;54.16
11212;BME280;5663;50.864;12.096;2023-04-23T10:08:06;98619.84;;;20.77;55.26
11212;BME280;5663;50.864;12.096;2023-04-23T10:10:36;98661.72;;;21.30;55.61
11212;BME280;5663;50.864;12.096;2023-04-23T10:13:05;98659.97;;;21.55;55.92
11212;BME280;5663;50.864;12.096;2023-04-23T10:15:34;98678.16;;;21.83;53.44
11212;BME280;5663;50.864;12.096;2023-04-23T10:18:08;98671.66;;;22.02;50.71
11212;BME280;5663;50.864;12.096;2023-04-23T10:20:40;98663.41;;;22.13;49.56
11212;BME280;5663;50.864;12.096;2023-04-23T10:23:10;98621.16;;;22.11;51.12
11212;BME280;5663;50.864;12.096;2023-04-23T10:25:41;98651.84;;;22.53;50.07
11212;BME280;5663;50.864;12.096;2023-04-23T10:28:10;98639.47;;;22.77;49.53
11212;BME280;5663;50.864;12.096;2023-04-23T10:30:42;98639.25;;;22.95;48.98
11212;BME280;5663;50.864;12.096;2023-04-23T10:33:11;98642.22;;;22.92;47.63
11212;BME280;5663;50.864;12.096;2023-04-23T10:35:39;98642.38;;;22.98;47.44
11212;BME280;5663;50.864;12.096;2023-04-23T10:38:08;98644.59;;;23.09;47.42
11212;BME280;5663;50.864;12.096;2023-04-23T10:40:37;98650.25;;;23.29;45.78
11212;BME280;5663;50.864;12.096;2023-04-23T10:43:08;98638.69;;;23.45;45.76
11212;BME280;5663;50.864;12.096;2023-04-23T10:45:36;98616.81;;;23.43;45.19
11212;BME280;5663;50.864;12.096;2023-04-23T10:48:05;98632.63;;;23.59;44.83
11212;BME280;5663;50.864;12.096;2023-04-23T10:50:35;98616.13;;;23.64;44.58
11212;BME280;5663;50.864;12.096;2023-04-23T10:53:04;98621.06;;;23.90;44.10
11212;BME280;5663;50.864;12.096;2023-04-23T10:55:32;98620.50;;;24.09;43.06
11212;BME280;5663;50.864;12.096;2023-04-23T10:58:01;98618.59;;;24.18;42.73
11212;BME280;5663;50.864;12.096;2023-04-23T11:00:44;98622.50;;;24.37;42.72
11212;BME280;5663;50.864;12.096;2023-04-23T11:03:31;98624.81;;;24.55;42.23
11212;BME280;5663;50.864;12.096;2023-04-23T11:06:05;98618.47;;;24.71;42.74
11212;BME280;5663;50.864;12.096;2023-04-23T11:08:35;98607.97;;;24.84;42.24
11212;BME280;5663;50.864;12.096;2023-04-23T11:11:06;98604.03;;;25.01;41.02
11212;BME280;5663;50.864;12.096;2023-04-23T11:13:35;98602.31;;;25.30;41.86
11212;BME280;5663;50.864;12.096;2023-04-23T11:16:14;98611.09;;;25.52;40.69
11212;BME280;5663;50.864;12.096;2023-04-23T11:19:00;98589.94;;;25.72;40.32
11212;BME280;5663;50.864;12.096;2023-04-23T11:21:58;98599.16;;;25.97;39.48
11212;BME280;5663;50.864;12.096;2023-04-23T11:24:28;98595.69;;;25.75;40.07
11212;BME280;5663;50.864;12.096;2023-04-23T11:26:56;98576.63;;;25.44;39.43
11212;BME280;5663;50.864;12.096;2023-04-23T11:29:26;98597.25;;;25.35;38.77
11212;BME280;5663;50.864;12.096;2023-04-23T11:31:56;98565.66;;;24.89;39.00
11212;BME280;5663;50.864;12.096;2023-04-23T11:34:24;98597.25;;;25.14;39.11
11212;BME280;5663;50.864;12.096;2023-04-23T11:36:52;98588.97;;;25.08;39.55
11212;BME280;5663;50.864;12.096;2023-04-23T11:39:21;98570.34;;;24.87;38.76
11212;BME280;5663;50.864;12.096;2023-04-23T11:41:52;98593.03;;;24.83;39.20
11212;BME280;5663;50.864;12.096;2023-04-23T11:44:20;98584.53;;;24.73;38.83
11212;BME280;5663;50.864;12.096;2023-04-23T11:46:47;98580.34;;;24.64;39.29
11212;BME280;5663;50.864;12.096;2023-04-23T11:49:17;98573.75;;;24.60;38.27
11212;BME280;5663;50.864;12.096;2023-04-23T11:51:46;98577.47;;;24.65;39.02
11212;BME280;5663;50.864;12.096;2023-04-23T11:54:15;98576.16;;;24.54;39.19
11212;BME280;5663;50.864;12.096;2023-04-23T11:56:43;98580.13;;;24.65;40.31
11212;BME280;5663;50.864;12.096;2023-04-23T11:59:11;98574.28;;;24.70;39.79
11212;BME280;5663;50.864;12.096;2023-04-23T12:01:41;98576.75;;;24.71;39.21
11212;BME280;5663;50.864;12.096;2023-04-23T12:04:14;98547.41;;;24.65;39.87
11212;BME280;5663;50.864;12.096;2023-04-23T12:06:46;98548.53;;;24.55;39.32
11212;BME280;5663;50.864;12.096;2023-04-23T12:09:18;98558.16;;;24.56;39.36
11212;BME280;5663;50.864;12.096;2023-04-23T12:11:48;98558.53;;;24.53;40.17
11212;BME280;5663;50.864;12.096;2023-04-23T12:14:19;98562.97;;;24.46;39.26
11212;BME280;5663;50.864;12.096;2023-04-23T12:16:54;98560.09;;;24.63;38.65
11212;BME280;5663;50.864;12.096;2023-04-23T12:19:27;98567.56;;;24.95;38.19
11212;BME280;5663;50.864;12.096;2023-04-23T12:21:59;98543.94;;;25.28;37.93
11212;BME280;5663;50.864;12.096;2023-04-23T12:24:29;98541.09;;;25.58;37.87
11212;BME280;5663;50.864;12.096;2023-04-23T12:26:59;98529.56;;;25.79;38.57
11212;BME280;5663;50.864;12.096;2023-04-23T12:29:30;98554.09;;;26.09;38.07
11212;BME280;5663;50.864;12.096;2023-04-23T12:31:59;98537.94;;;26.11;36.46
11212;BME280;5663;50.864;12.096;2023-04-23T12:34:28;98530.31;;;26.08;35.69
11212;BME280;5663;50.864;12.096;2023-04-23T12:37:05;98543.13;;;26.25;37.10
11212;BME280;5663;50.864;12.096;2023-04-23T12:39:34;98535.78;;;26.41;35.86
11212;BME280;5663;50.864;12.096;2023-04-23T12:42:03;98539.38;;;26.61;35.89
11212;BME280;5663;50.864;12.096;2023-04-23T12:44:32;98528.50;;;26.69;35.66
11212;BME280;5663;50.864;12.096;2023-04-23T12:47:02;98534.25;;;26.73;35.36
11212;BME280;5663;50.864;12.096;2023-04-23T12:49:32;98534.88;;;26.88;35.71
11212;BME280;5663;50.864;12.096;2023-04-23T12:52:03;98528.56;;;27.09;34.71
11212;BME280;5663;50.864;12.096;2023-04-23T12:54:33;98494.84;;;27.08;34.49
11212;BME280;5663;50.864;12.096;2023-04-23T12:57:03;98515.84;;;27.31;34.57
11212;BME280;5663;50.864;12.096;2023-04-23T12:59:32;98507.59;;;27.39;34.28
11212;BME280;5663;50.864;12.096;2023-04-23T13:02:00;98508.78;;;27.57;35.30
11212;BME280;5663;50.864;12.096;2023-04-23T13:04:28;98509.25;;;27.54;34.69
11212;BME280;5663;50.864;12.096;2023-04-23T13:06:55;98509.44;;;27.59;33.81
11212;BME280;5663;50.864;12.096;2023-04-23T13:09:27;98505.34;;;27.49;33.89
11212;BME280;5663;50.864;12.096;2023-04-23T13:11:55;98494.03;;;27.47;34.07
11212;BME280;5663;50.864;12.096;2023-04-23T13:14:24;98493.22;;;27.54;33.75